»·PEaware :: N448AF KTOA-KVNY

N448AF :: KTOA-KVNY

FLIGHT INFORMATION

Flight Status: Arrived
Operator: Privately registered:
United States
More flights under this callsign
Pilot: Joseph G. (21201)
Aircraft: CESSNA 172 SKYHAWK
(C172)
More flights by this aircraft type
Origin: KTOA Zamperini
United States
Destination: KVNY Van Nuys
United States
More flights between these airports :: More routes between these airports
Route: +LAX170 LIMBO V64 SMO125 SMO SMO317 CANOG
File this flight plan on PilotEdge
Remarks: Skyhigh Intro Flight
Altitude:
(Current/Filed)
4,000ft
Speed:
(Current/Filed)
115kts
Departed: 04-Jan-20 09:13 AM
Arrived: 04-Jan-20 10:38 AM
Distance/Time
Traveled:
26nm/1:25
Distance/Time
To Go:
Arrived

Flight Plot

Page will automatically refresh every two minutes.

Flight plan parsing failed; only flown route is shown


Map Options




Map Legend


Flown Route
Filed Route
Departure Airport
Arrival Airport
Navaid (VOR, NDB)
Fix

Horizontal Profiles

Position Reports

Time Latitude Longitude Heading Altitude Ground
Speed
04-Jan-20 08:29 33.801601 -118.341420 218 105ft 0kts
04-Jan-20 08:30 33.801598 -118.341423 218 105ft 0kts
04-Jan-20 08:31 33.801598 -118.341423 218 105ft 0kts
04-Jan-20 08:32 33.801598 -118.341423 218 105ft 0kts
04-Jan-20 08:33 33.801598 -118.341423 218 105ft 0kts
04-Jan-20 08:34 33.801598 -118.341423 218 105ft 0kts
04-Jan-20 08:35 33.801598 -118.341423 218 105ft 0kts
04-Jan-20 08:36 33.801598 -118.341423 218 105ft 0kts
04-Jan-20 08:37 33.801598 -118.341423 218 105ft 0kts
04-Jan-20 08:38 33.801598 -118.341423 218 105ft 0kts
04-Jan-20 08:39 33.801598 -118.341423 218 105ft 0kts
04-Jan-20 08:40 33.801598 -118.341423 218 105ft 0kts
04-Jan-20 08:41 33.801598 -118.341423 218 105ft 0kts
04-Jan-20 08:42 33.801598 -118.341423 218 105ft 0kts
04-Jan-20 08:43 33.801598 -118.341423 218 105ft 0kts
04-Jan-20 08:44 33.801598 -118.341423 218 105ft 0kts
04-Jan-20 08:45 33.801598 -118.341423 218 105ft 0kts
04-Jan-20 08:46 33.801598 -118.341423 218 105ft 0kts
04-Jan-20 08:47 33.801598 -118.341423 218 105ft 0kts
04-Jan-20 08:48 33.801598 -118.341423 218 105ft 0kts
04-Jan-20 08:49 33.801598 -118.341423 218 105ft 0kts
04-Jan-20 08:50 33.801598 -118.341423 218 105ft 0kts
04-Jan-20 08:51 33.801598 -118.341423 218 105ft 0kts
04-Jan-20 08:52 33.801598 -118.341423 218 105ft 0kts
04-Jan-20 08:53 33.801598 -118.341423 218 105ft 0kts
04-Jan-20 08:54 33.801598 -118.341423 218 105ft 0kts
04-Jan-20 08:55 33.801598 -118.341423 218 105ft 0kts
04-Jan-20 08:56 33.801598 -118.341423 218 105ft 0kts
04-Jan-20 08:57 33.801598 -118.341423 218 105ft 0kts
04-Jan-20 08:58 33.801598 -118.341423 218 105ft 0kts
04-Jan-20 08:59 33.801598 -118.341423 218 105ft 0kts
04-Jan-20 09:00 33.801598 -118.341423 218 105ft 0kts
04-Jan-20 09:01 33.801598 -118.341423 218 105ft 0kts
04-Jan-20 09:02 33.801598 -118.341423 218 105ft 0kts
04-Jan-20 09:03 33.801598 -118.341423 218 105ft 0kts
04-Jan-20 09:04 33.801598 -118.341423 218 105ft 0kts
04-Jan-20 09:05 33.801598 -118.341423 218 105ft 0kts
04-Jan-20 09:06 33.801598 -118.341423 218 105ft 0kts
04-Jan-20 09:07 33.801559 -118.341458 211 105ft 2kts
04-Jan-20 09:08 33.801156 -118.339254 146 103ft 4kts
04-Jan-20 09:09 33.798395 -118.335060 128 105ft 15kts
04-Jan-20 09:10 33.798755 -118.333269 62 101ft 0kts
04-Jan-20 09:11 33.798964 -118.333203 356 101ft 0kts
04-Jan-20 09:12 33.800711 -118.334603 310 99ft 56kts
04-Jan-20 09:13 33.815489 -118.353606 313 1132ft 82kts
04-Jan-20 09:14 33.831982 -118.373897 318 1932ft 93kts
04-Jan-20 09:15 33.849394 -118.396310 306 2744ft 92kts
04-Jan-20 09:16 33.864431 -118.421047 307 3613ft 90kts
04-Jan-20 09:17 33.853757 -118.439814 187 3908ft 110kts
04-Jan-20 09:18 33.823624 -118.443620 188 3910ft 107kts
04-Jan-20 09:19 33.793601 -118.446851 187 3910ft 107kts
04-Jan-20 09:20 33.764348 -118.446495 128 3888ft 111kts
04-Jan-20 09:21 33.760579 -118.416141 87 3990ft 118kts
04-Jan-20 09:22 33.761210 -118.407127 86 4062ft 113kts
04-Jan-20 09:23 33.759792 -118.381595 100 3886ft 116kts
04-Jan-20 09:24 33.758075 -118.345255 73 3793ft 109kts
04-Jan-20 09:25 33.768319 -118.310421 65 3821ft 102kts
04-Jan-20 09:26 33.770416 -118.276215 92 3938ft 106kts
04-Jan-20 09:27 33.769379 -118.239591 93 3934ft 110kts
04-Jan-20 09:28 33.784485 -118.216980 335 3935ft 102kts
04-Jan-20 09:29 33.812230 -118.223602 3 3934ft 105kts
04-Jan-20 09:30 33.832811 -118.242682 299 3895ft 98kts
04-Jan-20 09:31 33.845776 -118.272159 292 3930ft 100kts
04-Jan-20 09:32 33.859504 -118.301142 317 3930ft 101kts
04-Jan-20 09:33 33.881489 -118.323207 318 3929ft 101kts
04-Jan-20 09:34 33.903288 -118.345527 318 3929ft 101kts
04-Jan-20 09:35 33.924582 -118.367347 318 3929ft 101kts
04-Jan-20 09:36 33.945574 -118.388997 314 4115ft 88kts
04-Jan-20 09:37 33.966099 -118.410313 318 4849ft 106kts
04-Jan-20 09:39 33.988714 -118.433128 317 4904ft 102kts
04-Jan-20 09:40 34.010092 -118.456131 324 4904ft 102kts
04-Jan-20 09:41 34.035344 -118.473181 328 4905ft 103kts
04-Jan-20 09:42 34.060917 -118.489666 328 4905ft 103kts
04-Jan-20 09:43 34.086496 -118.506126 328 4904ft 103kts
04-Jan-20 09:44 34.111914 -118.522487 328 4908ft 103kts
04-Jan-20 09:45 34.137406 -118.538902 328 4911ft 103kts
04-Jan-20 09:46 34.163183 -118.554672 329 4914ft 102kts
04-Jan-20 09:47 34.188312 -118.571516 325 4916ft 101kts
04-Jan-20 09:48 34.213085 -118.589006 316 4916ft 102kts
04-Jan-20 09:49 34.241475 -118.595835 350 4923ft 106kts
04-Jan-20 09:50 34.270974 -118.599526 350 4921ft 106kts
04-Jan-20 09:51 34.300574 -118.603142 350 4922ft 105kts
04-Jan-20 09:52 34.331142 -118.606908 350 4927ft 117kts
04-Jan-20 09:53 34.364022 -118.611152 350 4919ft 113kts
04-Jan-20 09:54 34.394630 -118.614891 350 4922ft 108kts
04-Jan-20 09:55 34.424634 -118.618535 350 4924ft 108kts
04-Jan-20 09:56 34.449881 -118.621604 350 4925ft 109kts
04-Jan-20 09:57 34.480367 -118.625443 350 4923ft 109kts
04-Jan-20 09:58 34.510695 -118.627097 24 4919ft 112kts
04-Jan-20 09:58 34.514044 -118.596524 101 4924ft 119kts
04-Jan-20 10:00 34.502538 -118.552337 140 4924ft 117kts
04-Jan-20 10:01 34.477403 -118.526205 134 4920ft 118kts
04-Jan-20 10:01 34.452817 -118.514867 167 4924ft 114kts
04-Jan-20 10:02 34.421353 -118.510294 182 4922ft 113kts
04-Jan-20 10:04 34.384303 -118.508426 181 4932ft 113kts
04-Jan-20 10:04 34.356543 -118.506035 178 4427ft 124kts
04-Jan-20 10:05 34.323149 -118.502533 177 3599ft 116kts
04-Jan-20 10:06 34.292644 -118.499305 176 2824ft 107kts
04-Jan-20 10:07 34.263038 -118.495515 175 2073ft 105kts
04-Jan-20 10:08 34.236690 -118.493077 176 1557ft 93kts
04-Jan-20 10:09 34.209379 -118.491210 176 1534ft 106kts
04-Jan-20 10:10 34.179156 -118.488877 170 1530ft 109kts
04-Jan-20 10:11 34.151542 -118.475747 153 2080ft 109kts
04-Jan-20 10:12 34.125147 -118.465983 155 3191ft 83kts
04-Jan-20 10:13 34.103174 -118.457885 167 4130ft 83kts
04-Jan-20 10:14 34.077368 -118.452031 179 4510ft 111kts
04-Jan-20 10:15 34.046261 -118.451754 183 4504ft 109kts
04-Jan-20 10:16 34.015495 -118.452597 206 4500ft 107kts
04-Jan-20 10:17 34.013490 -118.484816 281 4505ft 103kts
04-Jan-20 10:18 34.018337 -118.519533 279 4504ft 103kts
04-Jan-20 10:19 34.022843 -118.554220 279 4505ft 103kts
04-Jan-20 10:20 34.027298 -118.588904 279 4504ft 103kts
04-Jan-20 10:21 34.031744 -118.623524 279 4504ft 103kts
04-Jan-20 10:22 34.036082 -118.657459 279 4505ft 103kts
04-Jan-20 10:23 34.040740 -118.692132 290 4501ft 104kts
04-Jan-20 10:24 34.067887 -118.701546 352 4505ft 106kts
04-Jan-20 10:25 34.097375 -118.705522 344 4506ft 105kts
04-Jan-20 10:26 34.126107 -118.713748 344 4508ft 105kts
04-Jan-20 10:27 34.154115 -118.721787 344 4509ft 105kts
04-Jan-20 10:28 34.182598 -118.724401 40 4507ft 110kts
04-Jan-20 10:29 34.196947 -118.690897 61 4515ft 112kts
04-Jan-20 10:30 34.207038 -118.654415 81 3931ft 111kts
04-Jan-20 10:31 34.204111 -118.620252 115 3911ft 97kts
04-Jan-20 10:32 34.204548 -118.589294 87 3852ft 96kts
04-Jan-20 10:33 34.205580 -118.557516 74 3378ft 93kts
04-Jan-20 10:34 34.221982 -118.534138 49 2853ft 90kts
04-Jan-20 10:35 34.233816 -118.507688 69 1904ft 85kts
04-Jan-20 10:36 34.226563 -118.490853 191 1055ft 76kts
04-Jan-20 10:37 34.211197 -118.489260 174 806ft 12kts
04-Jan-20 10:38 34.210297 -118.488657 88 806ft 0kts
04-Jan-20 10:39 34.210298 -118.488628 87 806ft 2kts
04-Jan-20 10:40 34.213598 -118.488694 353 806ft 10kts
04-Jan-20 10:41 34.215604 -118.488291 298 806ft 1kts
04-Jan-20 10:42 34.215609 -118.488305 290 806ft 0kts

Navigation Log

Ident Type
Flight plan parsing failed, navigation log unavailable